Time;durP1;ratioP1;P1;durP2;ratioP2;P2;SDS_P1;SDS_P2;PMS_P1;PMS_P2;Temp;Humidity;BMP_temperature;BMP_pressure;BME280_temperature;BME280_humidity;BME280_pressure;Samples;Min_cycle;Max_cycle;Signal;HPM_P1;HPM_P2
2022/01/06 00:00:07;;;;;;;24.60;13.60;;;14.10;92.90;;;;;;5188124;28;20049;-29
2022/01/06 00:02:58;;;;;;;15.27;8.83;;;14.10;92.90;;;;;;5187824;28;20050;-29
2022/01/06 00:05:29;;;;;;;20.27;11.17;;;14.10;92.80;;;;;;5170483;28;20057;-29
2022/01/06 00:08:01;;;;;;;13.27;9.30;;;14.10;92.80;;;;;;5187894;28;20049;-29
2022/01/06 00:10:32;;;;;;;11.17;7.50;;;14.10;92.80;;;;;;5187552;28;20133;-28
2022/01/06 00:13:16;;;;;;;15.37;8.87;;;14.10;92.80;;;;;;5187594;28;20126;-29
2022/01/06 00:18:38;;;;;;;28.37;13.73;;;14.10;92.80;;;;;;5171031;28;20042;-30
2022/01/06 00:23:58;;;;;;;18.93;11.33;;;14.10;92.80;;;;;;5187657;28;20042;-28
2022/01/06 00:26:29;;;;;;;38.03;23.87;;;14.10;92.90;;;;;;5188269;28;20050;-27
2022/01/06 00:29:00;;;;;;;54.03;48.17;;;14.10;92.90;;;;;;5169994;28;20053;-29
2022/01/06 00:31:32;;;;;;;53.47;23.67;;;14.10;93.00;;;;;;5187795;28;20052;-30
2022/01/06 00:34:05;;;;;;;20.70;11.67;;;14.10;93.00;;;;;;5187271;28;20128;-28
2022/01/06 00:36:37;;;;;;;14.70;10.57;;;14.10;93.10;;;;;;5170194;28;20057;-29
2022/01/06 00:39:09;;;;;;;31.92;14.32;;;14.10;93.00;;;;;;5187984;28;20115;-30
2022/01/06 00:41:40;;;;;;;52.83;25.37;;;14.20;93.10;;;;;;5169987;28;20046;-28
2022/01/06 00:44:11;;;;;;;31.07;15.60;;;14.20;93.10;;;;;;5186920;28;20060;-28
2022/01/06 00:46:42;;;;;;;24.47;13.10;;;14.20;93.10;;;;;;5169746;28;20399;-29
2022/01/06 00:49:13;;;;;;;24.13;14.17;;;14.10;93.10;;;;;;5187274;28;20049;-28
2022/01/06 00:51:44;;;;;;;16.33;9.97;;;14.10;93.10;;;;;;5169765;28;20045;-30
2022/01/06 00:54:15;;;;;;;19.47;11.90;;;14.10;93.10;;;;;;5187146;28;20046;-28
2022/01/06 00:56:46;;;;;;;17.80;10.63;;;14.10;93.20;;;;;;5169715;28;20045;-30
2022/01/06 00:59:17;;;;;;;17.30;10.67;;;14.10;93.50;;;;;;5187064;28;20073;-28
2022/01/06 01:01:48;;;;;;;14.37;9.97;;;14.10;93.30;;;;;;5187089;28;20077;-30
2022/01/06 01:04:19;;;;;;;12.43;8.67;;;14.10;93.30;;;;;;5186828;28;20054;-30
2022/01/06 01:06:50;;;;;;;16.70;11.63;;;14.10;93.30;;;;;;5186783;28;20046;-29
2022/01/06 01:09:22;;;;;;;12.60;9.17;;;14.10;93.40;;;;;;5186923;28;20054;-29
2022/01/06 01:11:54;;;;;;;9.13;7.83;;;14.10;93.40;;;;;;5168964;28;20058;-30
2022/01/06 01:14:28;;;;;;;10.50;7.03;;;14.10;93.50;;;;;;5169557;28;20172;-30
2022/01/06 01:17:01;;;;;;;;;;;14.10;93.50;;;;;;5187241;28;20399;-29
2022/01/06 01:19:32;;;;;;;8.27;6.10;;;14.00;93.50;;;;;;5186944;28;19956;-29
2022/01/06 01:22:03;;;;;;;9.63;6.10;;;14.00;93.50;;;;;;5169384;28;20116;-28
2022/01/06 01:24:34;;;;;;;8.93;5.23;;;14.00;93.60;;;;;;5187316;28;20518;-28
2022/01/06 01:27:07;;;;;;;6.90;5.40;;;14.00;93.60;;;;;;5186422;28;20049;-28
2022/01/06 01:29:50;;;;;;;7.15;4.47;;;14.00;93.60;;;;;;5186721;28;20498;-29
2022/01/06 01:32:29;;;;;;;5.22;3.90;;;14.00;93.50;;;;;;5186727;28;20133;-30
2022/01/06 01:35:02;;;;;;;7.70;4.57;;;14.00;93.50;;;;;;5153982;28;20145;-29
2022/01/06 01:37:33;;;;;;;7.40;5.32;;;14.00;93.60;;;;;;5186738;28;20053;-30
2022/01/06 01:40:05;;;;;;;5.80;4.20;;;14.00;93.60;;;;;;5186579;28;20420;-29
2022/01/06 01:42:36;;;;;;;5.83;4.37;;;14.10;93.60;;;;;;5147897;28;20058;-29
2022/01/06 01:45:09;;;;;;;5.97;4.13;;;14.10;93.90;;;;;;5147831;28;20059;-30
2022/01/06 01:47:43;;;;;;;5.60;3.83;;;14.00;93.70;;;;;;5147872;28;20059;-28
2022/01/06 01:50:16;;;;;;;7.20;4.37;;;14.00;93.70;;;;;;5164466;28;20057;-28
2022/01/06 01:52:51;;;;;;;4.77;4.00;;;14.00;93.80;;;;;;5148056;28;20050;-30
2022/01/06 01:55:26;;;;;;;7.57;4.83;;;14.00;93.80;;;;;;5148943;28;20081;-30
2022/01/06 01:57:57;;;;;;;6.90;4.50;;;14.00;93.90;;;;;;5167749;28;20101;-29
2022/01/06 02:00:29;;;;;;;6.10;4.77;;;14.00;94.00;;;;;;5151647;28;20061;-30
2022/01/06 02:03:00;;;;;;;11.93;7.97;;;14.00;94.00;;;;;;5168070;28;20475;-29
2022/01/06 02:05:32;;;;;;;12.37;10.37;;;14.00;94.00;;;;;;5167767;28;20047;-28
2022/01/06 02:08:05;;;;;;;7.47;5.73;;;14.00;94.00;;;;;;5167699;28;20058;-29
2022/01/06 02:10:36;;;;;;;8.13;5.73;;;14.00;94.00;;;;;;5107329;29;20052;-28
2022/01/06 02:13:07;;;;;;;7.73;5.67;;;14.00;94.10;;;;;;5107731;29;20066;-28
2022/01/06 02:15:38;;;;;;;7.77;4.93;;;14.00;94.00;;;;;;5107473;29;20053;-30
2022/01/06 02:18:09;;;;;;;7.00;4.77;;;14.00;94.00;;;;;;5107321;29;20052;-30
2022/01/06 02:20:40;;;;;;;6.77;4.20;;;13.90;94.00;;;;;;5123111;29;20055;-28
2022/01/06 02:23:11;;;;;;;4.33;3.00;;;14.00;94.10;;;;;;5127441;29;20505;-28
2022/01/06 02:25:42;;;;;;;4.50;2.77;;;13.90;94.10;;;;;;5127203;29;20107;-30
2022/01/06 02:28:12;;;;;;;5.33;3.63;;;13.90;94.20;;;;;;5127389;29;20051;-29
2022/01/06 02:30:48;;;;;;;3.93;2.67;;;13.80;94.20;;;;;;5127254;29;20078;-29
2022/01/06 02:33:19;;;;;;;3.83;2.77;;;13.80;94.20;;;;;;5127719;29;20051;-28
2022/01/06 02:35:51;;;;;;;3.60;2.57;;;13.80;94.20;;;;;;5127181;29;20063;-28
2022/01/06 02:38:22;;;;;;;2.30;2.07;;;13.80;94.20;;;;;;5127028;28;20151;-30
2022/01/06 02:40:53;;;;;;;2.53;1.87;;;13.80;94.20;;;;;;5111756;29;20489;-30
2022/01/06 02:43:25;;;;;;;2.90;2.10;;;13.80;94.20;;;;;;5126930;29;20130;-30
2022/01/06 02:45:56;;;;;;;2.87;2.00;;;13.80;94.20;;;;;;5126724;29;20055;-29
2022/01/06 02:48:26;;;;;;;2.33;1.70;;;13.80;94.20;;;;;;5171063;28;20066;-28
2022/01/06 02:50:57;;;;;;;2.10;1.70;;;13.80;94.20;;;;;;5189729;28;20148;-28
2022/01/06 02:53:28;;;;;;;2.37;2.00;;;13.80;94.20;;;;;;5189477;28;20531;-30
2022/01/06 02:56:00;;;;;;;2.30;1.67;;;13.70;94.20;;;;;;5189182;28;20049;-30
2022/01/06 02:58:31;;;;;;;1.63;1.30;;;13.70;94.10;;;;;;5189264;28;20050;-29
2022/01/06 03:01:02;;;;;;;2.07;1.40;;;13.70;94.00;;;;;;5189622;28;20391;-29
2022/01/06 03:03:33;;;;;;;3.30;1.50;;;13.80;94.00;;;;;;5189131;28;20049;-28
2022/01/06 03:06:04;;;;;;;1.80;1.30;;;13.70;94.00;;;;;;5171503;28;20364;-30
2022/01/06 03:08:37;;;;;;;1.90;1.40;;;13.70;93.90;;;;;;5189052;28;20042;-29
2022/01/06 03:11:08;;;;;;;1.33;1.20;;;13.80;93.90;;;;;;5167757;28;20073;-29
2022/01/06 03:13:39;;;;;;;1.37;1.10;;;13.70;93.90;;;;;;5169051;28;20077;-28
2022/01/06 03:16:10;;;;;;;1.93;1.23;;;13.70;93.90;;;;;;5168694;28;20042;-28
2022/01/06 03:18:41;;;;;;;1.93;1.20;;;13.60;93.80;;;;;;5167932;28;20057;-30
2022/01/06 03:21:12;;;;;;;1.80;1.10;;;13.70;93.80;;;;;;5167461;28;20092;-29
2022/01/06 03:23:43;;;;;;;3.00;1.70;;;13.70;93.80;;;;;;5168113;28;20050;-28
2022/01/06 03:26:14;;;;;;;2.93;1.73;;;13.70;93.80;;;;;;5168526;28;20466;-29
2022/01/06 03:28:45;;;;;;;1.33;1.07;;;13.80;93.80;;;;;;5168456;28;20078;-30
2022/01/06 03:31:16;;;;;;;2.30;1.30;;;13.70;93.70;;;;;;5167122;28;20049;-28
2022/01/06 03:33:46;;;;;;;2.30;1.10;;;13.70;93.70;;;;;;5168605;28;20061;-29
2022/01/06 03:36:18;;;;;;;2.17;1.20;;;13.70;93.70;;;;;;5168193;28;20042;-28
2022/01/06 03:38:48;;;;;;;2.43;1.60;;;13.80;93.70;;;;;;5168303;28;20101;-29
2022/01/06 03:41:20;;;;;;;1.70;1.20;;;13.80;93.60;;;;;;5167087;28;20053;-30
2022/01/06 03:43:51;;;;;;;2.70;1.77;;;13.70;93.60;;;;;;5166857;28;20038;-30
2022/01/06 03:46:22;;;;;;;1.70;1.20;;;13.70;93.50;;;;;;5168082;28;20404;-29
2022/01/06 03:48:53;;;;;;;2.40;1.43;;;13.70;93.50;;;;;;5168196;28;20042;-30
2022/01/06 03:51:25;;;;;;;3.20;1.50;;;13.70;93.40;;;;;;5168334;28;20042;-28
2022/01/06 03:53:56;;;;;;;2.53;1.33;;;13.70;93.30;;;;;;5167985;28;20116;-29
2022/01/06 03:56:28;;;;;;;1.90;1.20;;;13.70;93.30;;;;;;5166698;28;20066;-30
2022/01/06 03:58:59;;;;;;;2.17;1.35;;;13.70;93.30;;;;;;5167923;28;20049;-30
2022/01/06 04:01:31;;;;;;;1.03;0.87;;;13.70;93.20;;;;;;5167746;28;20050;-30
2022/01/06 04:04:02;;;;;;;2.73;1.00;;;13.70;93.20;;;;;;5167544;28;20137;-30
2022/01/06 04:06:33;;;;;;;1.77;1.13;;;13.70;93.10;;;;;;5167597;28;20046;-30
2022/01/06 04:09:04;;;;;;;5.13;2.80;;;13.70;93.00;;;;;;5166675;28;20046;-30
2022/01/06 04:11:35;;;;;;;2.77;1.30;;;13.70;92.90;;;;;;5176017;28;20054;-28
2022/01/06 04:14:06;;;;;;;2.20;1.10;;;13.70;92.90;;;;;;5170915;28;20046;-28
2022/01/06 04:16:39;;;;;;;2.87;1.17;;;13.70;93.10;;;;;;5170444;28;20076;-27
2022/01/06 04:19:10;;;;;;;1.23;0.85;;;13.70;92.70;;;;;;5187166;28;20498;-28
2022/01/06 04:21:41;;;;;;;1.77;1.00;;;13.70;92.90;;;;;;5170822;28;20038;-28
2022/01/06 04:24:12;;;;;;;2.27;1.10;;;13.70;92.70;;;;;;5187620;28;20530;-28
2022/01/06 04:26:43;;;;;;;2.07;1.13;;;13.50;92.40;;;;;;5170395;28;20041;-28
2022/01/06 04:29:14;;;;;;;2.83;1.20;;;13.60;92.40;;;;;;5170220;28;20142;-28
2022/01/06 04:31:45;;;;;;;2.47;1.40;;;13.60;92.40;;;;;;5187372;28;20441;-29
2022/01/06 04:34:15;;;;;;;1.50;0.90;;;13.60;92.30;;;;;;5187857;28;20176;-30
2022/01/06 04:36:51;;;;;;;1.20;0.87;;;13.60;92.20;;;;;;5187421;28;20050;-30
2022/01/06 04:39:22;;;;;;;2.83;1.13;;;13.60;92.20;;;;;;5187735;28;20049;-30
2022/01/06 04:41:53;;;;;;;1.40;0.90;;;13.70;92.20;;;;;;5187595;28;20053;-30
2022/01/06 04:44:24;;;;;;;1.53;1.00;;;13.60;92.00;;;;;;5153788;28;20053;-28
2022/01/06 04:46:55;;;;;;;1.60;0.80;;;13.60;92.00;;;;;;5169627;28;20046;-30
2022/01/06 04:49:26;;;;;;;1.93;1.10;;;13.60;92.00;;;;;;5187035;28;20117;-29
2022/01/06 04:51:57;;;;;;;2.03;0.97;;;13.60;91.90;;;;;;5169829;28;20436;-28
2022/01/06 04:54:28;;;;;;;2.57;0.90;;;13.70;91.80;;;;;;5187139;28;20049;-28
2022/01/06 04:56:59;;;;;;;1.50;0.90;;;13.60;91.80;;;;;;5169689;28;20056;-29
2022/01/06 04:59:30;;;;;;;2.70;0.83;;;13.70;91.70;;;;;;5169845;28;20041;-29
2022/01/06 05:02:02;;;;;;;1.93;1.00;;;13.80;91.60;;;;;;5187162;28;20045;-28
2022/01/06 05:04:33;;;;;;;1.93;1.10;;;13.90;91.30;;;;;;5186959;28;20042;-28
2022/01/06 05:07:04;;;;;;;2.27;1.23;;;13.90;91.20;;;;;;5186952;28;20049;-29
2022/01/06 05:09:35;;;;;;;1.70;0.80;;;14.00;91.00;;;;;;5187164;28;20070;-28
2022/01/06 05:12:06;;;;;;;2.10;1.20;;;14.10;91.00;;;;;;5186761;28;20120;-30
2022/01/06 05:14:37;;;;;;;3.63;1.50;;;14.10;90.80;;;;;;5169677;28;20124;-30
2022/01/06 05:17:08;;;;;;;3.00;1.47;;;14.10;90.70;;;;;;5169338;28;20078;-28
2022/01/06 05:19:39;;;;;;;2.93;1.90;;;14.20;90.70;;;;;;5169358;28;20045;-29
2022/01/06 05:22:10;;;;;;;2.83;1.80;;;14.10;90.70;;;;;;5186571;28;20053;-30
2022/01/06 05:24:41;;;;;;;1.87;1.40;;;14.10;90.70;;;;;;5186685;28;20108;-29
2022/01/06 05:27:12;;;;;;;4.13;3.00;;;14.20;90.70;;;;;;5186578;28;20046;-28
2022/01/06 05:29:43;;;;;;;3.70;1.40;;;14.20;90.80;;;;;;5186845;28;20503;-29
2022/01/06 05:32:14;;;;;;;3.50;1.87;;;14.10;90.70;;;;;;5173158;28;20057;-28
2022/01/06 05:34:45;;;;;;;3.87;1.43;;;14.20;90.70;;;;;;5191238;28;20391;-30
2022/01/06 05:37:16;;;;;;;2.70;1.60;;;14.10;90.70;;;;;;5190940;28;20054;-29
2022/01/06 05:39:47;;;;;;;11.20;7.00;;;14.20;90.80;;;;;;5190810;28;20053;-29
2022/01/06 05:42:18;;;;;;;17.63;11.17;;;14.20;90.80;;;;;;5190487;28;20048;-29
2022/01/06 05:44:49;;;;;;;34.47;19.93;;;14.10;90.80;;;;;;5190612;28;20050;-30
2022/01/06 05:47:20;;;;;;;57.00;36.67;;;14.20;90.80;;;;;;5190429;28;20046;-29
2022/01/06 05:49:50;;;;;;;76.57;49.57;;;14.10;90.90;;;;;;5190611;28;20092;-30
2022/01/06 05:52:23;;;;;;;93.80;60.57;;;14.10;90.80;;;;;;5190454;28;20076;-28
2022/01/06 05:54:53;;;;;;;32.87;22.10;;;14.10;90.80;;;;;;5190469;28;20038;-28
2022/01/06 05:57:25;;;;;;;35.67;26.07;;;14.10;90.80;;;;;;5172819;28;20046;-30
2022/01/06 05:59:56;;;;;;;28.70;20.13;;;14.10;90.70;;;;;;5173183;28;20483;-28
2022/01/06 06:02:27;;;;;;;20.33;15.20;;;14.00;90.70;;;;;;5190408;28;20065;-29
2022/01/06 06:04:57;;;;;;;15.30;11.13;;;14.00;90.60;;;;;;5190125;28;20136;-30
2022/01/06 06:07:28;;;;;;;16.67;12.50;;;14.00;90.60;;;;;;5190219;28;20046;-29
2022/01/06 06:09:59;;;;;;;11.70;7.43;;;14.00;90.60;;;;;;5190270;28;20041;-29
2022/01/06 06:12:31;;;;;;;16.17;11.20;;;14.00;90.40;;;;;;5172816;28;20065;-28
2022/01/06 06:15:02;;;;;;;14.50;10.87;;;13.90;90.50;;;;;;5190141;28;20049;-28
2022/01/06 06:17:33;;;;;;;15.00;11.77;;;14.00;90.30;;;;;;5190093;28;20096;-28
2022/01/06 06:20:04;;;;;;;9.57;7.13;;;14.00;90.40;;;;;;5189997;28;20487;-28
2022/01/06 06:22:35;;;;;;;9.07;5.47;;;14.00;90.30;;;;;;5190220;28;20467;-28
2022/01/06 06:25:06;;;;;;;4.73;2.23;;;14.00;90.30;;;;;;5190031;28;20073;-29
2022/01/06 06:27:37;;;;;;;7.67;3.33;;;14.00;90.30;;;;;;5189758;28;20056;-28
2022/01/06 06:30:09;;;;;;;6.50;3.23;;;14.00;90.30;;;;;;5172449;28;20042;-28
2022/01/06 06:32:40;;;;;;;25.90;12.80;;;14.00;90.30;;;;;;5189736;28;20137;-29
2022/01/06 06:35:11;;;;;;;4.87;2.27;;;14.00;90.30;;;;;;5171660;28;20137;-29
2022/01/06 06:37:42;;;;;;;28.67;12.70;;;14.00;90.20;;;;;;5189544;28;20045;-30
2022/01/06 06:40:13;;;;;;;22.83;10.47;;;14.00;90.10;;;;;;5189658;28;20042;-29
2022/01/06 06:42:44;;;;;;;8.80;4.40;;;14.00;90.10;;;;;;5155430;28;20124;-30
2022/01/06 06:45:15;;;;;;;8.60;4.23;;;14.00;90.30;;;;;;5189479;28;20172;-30
2022/01/06 06:47:46;;;;;;;12.90;6.50;;;14.00;90.20;;;;;;5189409;28;20045;-31
2022/01/06 06:50:18;;;;;;;10.33;5.23;;;13.90;90.20;;;;;;5188899;28;20060;-28
2022/01/06 06:52:49;;;;;;;8.37;5.27;;;13.90;90.10;;;;;;5172101;28;20042;-29
2022/01/06 06:55:20;;;;;;;4.43;1.77;;;13.80;90.30;;;;;;5189280;28;20044;-30
2022/01/06 06:57:51;;;;;;;6.07;3.10;;;13.80;90.30;;;;;;5189043;28;20069;-29
2022/01/06 07:00:23;;;;;;;5.57;2.27;;;13.80;90.30;;;;;;5189097;28;20135;-28
2022/01/06 07:02:54;;;;;;;3.57;1.90;;;13.80;90.30;;;;;;5171801;28;20073;-29
2022/01/06 07:05:24;;;;;;;4.33;2.10;;;13.80;90.50;;;;;;5169717;28;20073;-29
2022/01/06 07:07:56;;;;;;;3.97;1.50;;;13.90;90.20;;;;;;5169971;28;20086;-30
2022/01/06 07:10:26;;;;;;;4.03;1.70;;;13.90;90.10;;;;;;5154721;28;20490;-29
2022/01/06 07:12:57;;;;;;;3.93;1.53;;;13.90;90.10;;;;;;5142701;28;20085;-29
2022/01/06 07:15:28;;;;;;;3.30;1.33;;;13.90;90.00;;;;;;5166037;28;20062;-30
2022/01/06 07:18:00;;;;;;;3.07;1.60;;;14.00;89.90;;;;;;5169222;28;20050;-30
2022/01/06 07:20:31;;;;;;;5.10;1.73;;;14.00;90.00;;;;;;5183947;28;20116;-30
2022/01/06 07:23:02;;;;;;;3.03;1.43;;;14.00;90.30;;;;;;5186653;28;20060;-28
2022/01/06 07:25:33;;;;;;;4.00;1.40;;;13.90;90.00;;;;;;5169046;28;20045;-30
2022/01/06 07:28:05;;;;;;;3.83;1.67;;;13.90;90.00;;;;;;5186384;28;20061;-30
2022/01/06 07:30:36;;;;;;;3.70;1.67;;;13.90;90.00;;;;;;5156615;28;20050;-28
2022/01/06 07:33:25;;;;;;;4.50;1.70;;;14.00;90.10;;;;;;5186268;28;20077;-29
2022/01/06 07:35:56;;;;;;;4.83;1.80;;;14.00;90.10;;;;;;5186196;28;20054;-29
2022/01/06 07:38:27;;;;;;;5.07;1.97;;;14.00;90.20;;;;;;5173065;28;20050;-30
2022/01/06 07:40:58;;;;;;;4.33;1.83;;;13.90;90.00;;;;;;5191469;28;20575;-30
2022/01/06 07:43:29;;;;;;;3.43;1.87;;;13.90;89.90;;;;;;5168342;28;20104;-30
2022/01/06 07:46:00;;;;;;;9.43;5.93;;;13.90;89.90;;;;;;5193119;28;20050;-27
2022/01/06 07:48:47;;;;;;;13.90;8.93;;;13.90;90.00;;;;;;5152492;28;20053;-28
2022/01/06 07:51:18;;;;;;;9.30;7.17;;;13.80;90.00;;;;;;5185771;28;20495;-28
2022/01/06 07:53:50;;;;;;;6.93;4.00;;;13.80;90.00;;;;;;5166786;28;20042;-29
2022/01/06 07:56:21;;;;;;;8.63;5.43;;;13.70;90.10;;;;;;5166020;28;20041;-30
2022/01/06 07:58:52;;;;;;;9.27;4.70;;;13.80;89.90;;;;;;5187659;28;20045;-28
2022/01/06 08:01:23;;;;;;;8.27;4.30;;;13.80;90.00;;;;;;5187327;28;20048;-28
2022/01/06 08:03:54;;;;;;;6.50;3.50;;;13.80;89.90;;;;;;5186728;28;20140;-29
2022/01/06 08:06:25;;;;;;;5.87;3.17;;;13.80;90.00;;;;;;5186944;28;20065;-27
2022/01/06 08:08:56;;;;;;;8.93;4.93;;;13.80;89.60;;;;;;5187977;28;20034;-28
2022/01/06 08:11:28;;;;;;;6.33;3.70;;;13.90;89.50;;;;;;5187204;28;20133;-27
2022/01/06 08:13:59;;;;;;;8.63;5.07;;;13.90;89.50;;;;;;5169433;28;20482;-30
2022/01/06 08:16:30;;;;;;;14.80;9.33;;;14.00;89.50;;;;;;5186368;28;20129;-29
2022/01/06 08:19:01;;;;;;;8.17;4.37;;;13.90;89.90;;;;;;5168992;28;20513;-30
2022/01/06 08:21:32;;;;;;;8.13;3.70;;;13.80;89.50;;;;;;5187514;28;20046;-29
2022/01/06 08:24:03;;;;;;;6.87;4.27;;;13.70;89.80;;;;;;5187245;28;20469;-29
2022/01/06 08:26:34;;;;;;;4.30;2.80;;;13.60;89.60;;;;;;5187054;28;20038;-28
2022/01/06 08:29:05;;;;;;;8.57;3.87;;;13.50;89.50;;;;;;5186540;28;20046;-29
2022/01/06 08:31:36;;;;;;;6.43;3.23;;;13.40;89.00;;;;;;5187428;28;20038;-30
2022/01/06 08:34:07;;;;;;;5.80;2.83;;;13.40;89.30;;;;;;5186797;28;20064;-28
2022/01/06 08:36:38;;;;;;;4.33;2.20;;;13.30;88.60;;;;;;5186371;28;20487;-27
2022/01/06 08:39:09;;;;;;;5.57;2.53;;;13.20;87.40;;;;;;5187218;28;20052;-31
2022/01/06 08:41:40;;;;;;;6.67;3.40;;;13.10;86.50;;;;;;5186197;28;20116;-30
2022/01/06 08:44:11;;;;;;;5.90;2.77;;;13.10;87.40;;;;;;5169080;28;20041;-28
2022/01/06 08:46:42;;;;;;;6.20;3.00;;;13.00;86.20;;;;;;5186693;28;20046;-28
2022/01/06 08:49:14;;;;;;;3.73;1.70;;;13.00;86.60;;;;;;5187432;28;20141;-29
2022/01/06 08:51:45;;;;;;;4.50;1.90;;;12.90;85.80;;;;;;5169677;28;20403;-29
2022/01/06 08:54:16;;;;;;;4.50;2.33;;;12.90;85.70;;;;;;5186984;28;20085;-28
2022/01/06 08:56:47;;;;;;;5.93;2.87;;;13.00;85.50;;;;;;5187133;28;20069;-30
2022/01/06 08:59:18;;;;;;;4.93;2.17;;;13.10;84.70;;;;;;5186190;28;20046;-28
2022/01/06 09:01:49;;;;;;;6.40;2.73;;;13.10;82.60;;;;;;5186341;28;20045;-28
2022/01/06 09:04:20;;;;;;;7.37;2.57;;;13.20;82.90;;;;;;5185896;28;20053;-29
2022/01/06 09:06:51;;;;;;;7.67;4.37;;;13.20;80.90;;;;;;5186833;28;20049;-29
2022/01/06 09:09:22;;;;;;;4.17;2.70;;;13.30;80.70;;;;;;5186704;28;20164;-28
2022/01/06 09:11:54;;;;;;;4.27;2.00;;;13.40;79.20;;;;;;5186618;28;20137;-28
2022/01/06 09:14:25;;;;;;;5.13;2.63;;;13.50;78.10;;;;;;5187038;28;20069;-29
2022/01/06 09:16:56;;;;;;;4.97;2.30;;;13.70;77.70;;;;;;5169358;28;20088;-28
2022/01/06 09:19:27;;;;;;;4.23;1.97;;;13.80;77.70;;;;;;5186696;28;20403;-28
2022/01/06 09:21:58;;;;;;;5.77;3.13;;;13.90;75.80;;;;;;5187334;28;20104;-29
2022/01/06 09:24:29;;;;;;;7.00;5.30;;;13.70;73.80;;;;;;5186664;28;20057;-29
2022/01/06 09:27:00;;;;;;;6.40;4.17;;;13.70;73.10;;;;;;5186760;28;20125;-29
2022/01/06 09:29:31;;;;;;;11.53;10.40;;;13.70;72.50;;;;;;5169243;28;20088;-29
2022/01/06 09:32:02;;;;;;;8.67;7.30;;;13.60;72.40;;;;;;5186574;28;20069;-28
2022/01/06 09:34:33;;;;;;;8.63;5.67;;;13.70;73.20;;;;;;5186649;28;20146;-28
2022/01/06 09:37:04;;;;;;;8.07;5.77;;;13.70;72.10;;;;;;5186528;28;20128;-29
2022/01/06 09:39:35;;;;;;;8.80;4.50;;;13.70;72.50;;;;;;5169199;28;20038;-27
2022/01/06 09:42:06;;;;;;;13.57;5.83;;;13.70;72.10;;;;;;5185761;28;21205;-28
2022/01/06 09:44:38;;;;;;;6.00;3.03;;;13.80;75.10;;;;;;5186546;28;20480;-29
2022/01/06 09:47:09;;;;;;;4.90;2.60;;;13.80;74.10;;;;;;5168667;28;20814;-29
2022/01/06 09:49:42;;;;;;;3.40;1.73;;;13.80;73.60;;;;;;5152453;28;20474;-28
2022/01/06 09:52:13;;;;;;;4.30;2.80;;;13.80;73.10;;;;;;5168185;28;20483;-30
2022/01/06 09:54:44;;;;;;;4.67;2.80;;;13.80;73.00;;;;;;5185501;28;20065;-28
2022/01/06 09:57:15;;;;;;;7.67;6.03;;;13.60;72.70;;;;;;5168764;28;20085;-30
2022/01/06 09:59:48;;;;;;;5.50;2.63;;;13.60;73.10;;;;;;5169058;28;20128;-29
2022/01/06 10:02:18;;;;;;;3.27;1.70;;;13.60;73.10;;;;;;5186447;28;20546;-29
2022/01/06 10:04:59;;;;;;;7.77;3.90;;;13.60;73.10;;;;;;5186181;28;20052;-28
2022/01/06 10:07:37;;;;;;;5.60;2.63;;;13.60;72.70;;;;;;5152787;28;20088;-28
2022/01/06 10:10:11;;;;;;;7.23;3.47;;;13.50;73.10;;;;;;5152912;28;20530;-28
2022/01/06 10:12:42;;;;;;;5.37;3.20;;;13.40;72.60;;;;;;5168400;28;20062;-29
2022/01/06 10:15:21;;;;;;;2.43;1.50;;;13.50;73.20;;;;;;5168785;28;20049;-30
2022/01/06 10:17:52;;;;;;;3.83;1.57;;;13.50;72.80;;;;;;5172058;28;20113;-29
2022/01/06 10:20:27;;;;;;;8.37;4.13;;;13.50;73.00;;;;;;5156848;28;20093;-30
2022/01/06 10:22:58;;;;;;;8.47;3.90;;;13.40;73.70;;;;;;5189880;28;20125;-30
2022/01/06 10:25:31;;;;;;;8.27;4.27;;;13.30;73.20;;;;;;5172841;28;20117;-28
2022/01/06 10:28:12;;;;;;;6.70;3.85;;;13.30;72.80;;;;;;5155582;28;20049;-30
2022/01/06 10:30:48;;;;;;;5.47;2.90;;;13.40;73.70;;;;;;5153566;28;20065;-28
2022/01/06 10:33:19;;;;;;;8.50;4.00;;;13.30;73.30;;;;;;5171476;28;20120;-30
2022/01/06 10:36:06;;;;;;;32.77;15.90;;;13.30;74.10;;;;;;5186783;28;20073;-28
2022/01/06 10:38:37;;;;;;;39.73;20.97;;;13.20;73.90;;;;;;5169179;28;20139;-30
2022/01/06 10:41:15;;;;;;;5.15;3.35;;;13.30;74.10;;;;;;5175413;28;20439;-28
2022/01/06 10:43:50;;;;;;;12.80;7.50;;;13.30;74.70;;;;;;5182122;28;20049;-29
2022/01/06 10:46:28;;;;;;;4.00;2.40;;;13.30;75.00;;;;;;5185867;28;20111;-29
2022/01/06 10:49:07;;;;;;;8.13;3.57;;;13.30;74.70;;;;;;5172106;28;20053;-29
2022/01/06 10:51:48;;;;;;;15.50;10.70;;;13.30;75.50;;;;;;5172054;28;20156;-30
2022/01/06 10:54:21;;;;;;;5.70;3.13;;;13.40;76.10;;;;;;5180781;28;20061;-28
2022/01/06 10:56:56;;;;;;;5.15;2.50;;;13.50;76.80;;;;;;5176204;28;20088;-28
2022/01/06 10:59:29;;;;;;;4.20;2.00;;;13.40;75.60;;;;;;5186739;28;20050;-29
2022/01/06 11:02:00;;;;;;;;;;;13.50;75.60;;;;;;5187595;28;20042;-29
2022/01/06 11:04:31;;;;;;;5.00;3.20;;;13.60;75.80;;;;;;5186720;28;20366;-29
2022/01/06 11:07:03;;;;;;;9.00;4.73;;;13.60;75.80;;;;;;5186792;28;20049;-27
2022/01/06 11:09:34;;;;;;;14.47;9.63;;;13.60;76.10;;;;;;5186474;28;20434;-29
2022/01/06 11:14:54;;;;;;;3.33;1.97;;;13.60;76.80;;;;;;5158244;28;20682;-29
2022/01/06 11:17:26;;;;;;;5.37;2.60;;;13.60;76.00;;;;;;5186704;28;20045;-28
2022/01/06 11:19:57;;;;;;;8.80;5.47;;;13.60;76.30;;;;;;5152833;28;20076;-29
2022/01/06 11:22:28;;;;;;;7.03;3.37;;;13.50;77.00;;;;;;5169259;28;20181;-29
2022/01/06 11:25:00;;;;;;;3.43;1.77;;;13.50;76.70;;;;;;5151832;28;20137;-28
2022/01/06 11:27:31;;;;;;;6.67;3.67;;;13.50;77.30;;;;;;5186268;28;20451;-28
2022/01/06 11:30:08;;;;;;;6.83;4.20;;;13.50;76.70;;;;;;5199231;28;20041;-28
2022/01/06 11:32:41;;;;;;;4.10;2.20;;;13.50;77.60;;;;;;5186235;28;20046;-30
2022/01/06 11:35:16;;;;;;;3.20;2.03;;;13.50;76.90;;;;;;5186477;28;20539;-28
2022/01/06 11:37:49;;;;;;;5.83;3.30;;;13.60;77.30;;;;;;5152806;28;20053;-29
2022/01/06 11:40:32;;;;;;;4.55;2.80;;;13.60;77.30;;;;;;5186340;28;20085;-28
2022/01/06 11:43:03;;;;;;;7.15;4.43;;;13.30;77.80;;;;;;5164663;28;20051;-28
2022/01/06 11:45:34;;;;;;;5.37;3.20;;;13.30;78.90;;;;;;5180465;28;20057;-29
2022/01/06 11:48:14;;;;;;;6.90;5.27;;;13.20;77.20;;;;;;5186269;28;20038;-29
2022/01/06 11:50:46;;;;;;;4.70;3.07;;;13.30;77.70;;;;;;5152075;28;20052;-29
2022/01/06 11:53:18;;;;;;;3.92;1.70;;;13.30;77.40;;;;;;5168736;28;20516;-28
2022/01/06 11:55:49;;;;;;;3.40;2.40;;;13.30;79.60;;;;;;5187160;28;20065;-28
2022/01/06 11:58:22;;;;;;;4.23;2.60;;;13.20;77.60;;;;;;5198631;28;20480;-29
2022/01/06 12:00:59;;;;;;;4.95;2.85;;;13.20;77.30;;;;;;5185908;28;20072;-30
2022/01/06 12:03:41;;;;;;;3.87;2.37;;;13.30;77.00;;;;;;5185928;28;20042;-28
2022/01/06 12:06:28;;;;;;;2.33;1.30;;;13.40;77.00;;;;;;5182397;28;20052;-28
2022/01/06 12:08:59;;;;;;;2.93;1.53;;;13.40;76.80;;;;;;5149577;28;20058;-29
2022/01/06 12:11:44;;;;;;;2.63;1.60;;;13.40;77.00;;;;;;5135985;28;20058;-30
2022/01/06 12:14:24;;;;;;;5.40;2.70;;;13.40;77.00;;;;;;5167222;28;20074;-29
2022/01/06 12:17:09;;;;;;;5.17;3.17;;;13.40;76.50;;;;;;5150324;28;20550;-28
2022/01/06 12:19:40;;;;;;;8.83;5.30;;;13.50;77.10;;;;;;5133388;28;20403;-30
2022/01/06 12:22:11;;;;;;;6.47;2.90;;;13.50;76.60;;;;;;5150021;28;20131;-30
2022/01/06 12:24:44;;;;;;;6.67;3.10;;;13.50;76.60;;;;;;5165247;28;20034;-30
2022/01/06 12:27:15;;;;;;;9.88;5.45;;;13.50;76.50;;;;;;5167304;28;20132;-29
2022/01/06 12:29:47;;;;;;;4.37;2.77;;;13.50;77.60;;;;;;5165911;28;20054;-28
2022/01/06 12:32:18;;;;;;;22.17;15.13;;;13.50;76.10;;;;;;5165943;28;20049;-30
2022/01/06 12:34:53;;;;;;;8.00;4.73;;;13.40;76.00;;;;;;5165971;28;20408;-29
2022/01/06 12:37:29;;;;;;;6.15;3.55;;;13.40;76.60;;;;;;5166406;28;20125;-30
2022/01/06 12:40:00;;;;;;;5.50;3.10;;;13.20;75.50;;;;;;5167324;28;20173;-30
2022/01/06 12:42:39;;;;;;;5.40;2.90;;;13.30;76.10;;;;;;5166986;28;20165;-29
2022/01/06 12:45:11;;;;;;;4.27;2.00;;;13.40;76.00;;;;;;5149700;28;20425;-29
2022/01/06 12:47:46;;;;;;;3.50;2.10;;;13.30;75.80;;;;;;5166488;28;20069;-29
2022/01/06 12:50:20;;;;;;;9.40;5.10;;;13.30;76.00;;;;;;5167026;28;20117;-28
2022/01/06 12:52:52;;;;;;;6.55;4.30;;;13.40;76.30;;;;;;5150054;28;20046;-30
2022/01/06 12:55:26;;;;;;;6.22;4.18;;;13.40;76.40;;;;;;5166819;28;20133;-30
2022/01/06 12:57:59;;;;;;;7.73;5.30;;;13.50;76.70;;;;;;5149907;28;20092;-29
2022/01/06 13:01:02;;;;;;;6.63;3.60;;;13.40;76.50;;;;;;5166817;28;20046;-28
2022/01/06 13:03:49;;;;;;;4.90;3.58;;;13.40;76.30;;;;;;5166754;28;20046;-28
2022/01/06 13:06:35;;;;;;;4.83;2.80;;;13.30;75.80;;;;;;5166566;28;20046;-29
2022/01/06 13:09:19;;;;;;;6.50;4.37;;;13.20;75.70;;;;;;5166729;28;20484;-29
2022/01/06 13:11:56;;;;;;;3.80;2.47;;;13.30;75.60;;;;;;5165071;28;20116;-30
2022/01/06 13:14:43;;;;;;;5.50;3.70;;;13.20;75.50;;;;;;5165241;28;20054;-30
2022/01/06 13:17:22;;;;;;;11.80;7.67;;;13.20;75.90;;;;;;5166687;28;20128;-28